Terminal Aerodrome Forecast
Issued by NWS

Home | Current Version | Previous Version | Text Only | Print | Product List | Glossary On
Versions: 1 2 3 4 5 6 7 8 9 10 11 12 13 14 15 16 17 18 19 20 21 22 23 24
000
FTUS43 KLSX 290607 AAA
TAFUIN
TAF AMD
KUIN 290607Z 2906/3006 30007KT P6SM SCT040 BKN100
      TEMPO 2908/2910 VRB20G40KT 2SM TSRA BKN015CB
     FM291000 32010KT P6SM VCTS SCT030CB BKN080
     FM291500 35010KT P6SM BKN040
     FM292100 33008KT P6SM SKC=

USA.gov is the U.S. government's official web portal to all federal, state and local government web resources and services.